Time;durP1;ratioP1;P1;durP2;ratioP2;P2;SDS_P1;SDS_P2;PMS_P1;PMS_P2;Temp;Humidity;BMP_temperature;BMP_pressure;BME280_temperature;BME280_humidity;BME280_pressure;Samples;Min_cycle;Max_cycle;Signal;HPM_P1;HPM_P2
2023/08/16 00:00:48;;;;;;;;;;;;;;;23.63;57.31;99589.91;3156933;28;19927;-72
2023/08/16 00:02:20;;;;;;;;;;;;;;;23.62;57.23;99593.56;3147778;28;19924;-72
2023/08/16 00:03:53;;;;;;;;;;;;;;;23.60;57.25;99595.56;3157901;28;19920;-71
2023/08/16 00:05:24;;;;;;;;;;;;;;;23.57;57.61;99596.72;3153468;28;19920;-71
2023/08/16 00:06:55;;;;;;;;;;;;;;;23.57;57.61;99595.88;3158277;28;19978;-71
2023/08/16 00:08:26;;;;;;;;;;;;;;;23.57;57.58;99591.41;3158059;28;19969;-71
2023/08/16 00:09:57;;;;;;;;;;;;;;;23.58;57.51;99592.25;3157802;28;20291;-71
2023/08/16 00:11:28;;;;;;;;;;;;;;;23.57;57.37;99583.44;3156440;28;19928;-71
2023/08/16 00:13:00;;;;;;;;;;;;;;;23.56;57.15;99588.91;3158128;28;19923;-71
2023/08/16 00:14:30;;;;;;;;;;;;;;;23.53;57.72;99584.72;3157743;28;20450;-71
2023/08/16 00:16:02;;;;;;;;;;;;;;;23.53;57.49;99589.22;3158239;28;20024;-71
2023/08/16 00:17:33;;;;;;;;;;;;;;;23.53;57.64;99590.03;3158034;28;19920;-71
2023/08/16 00:19:06;;;;;;;;;;;;;;;23.54;57.45;99582.91;3156807;28;19954;-71
2023/08/16 00:20:37;;;;;;;;;;;;;;;23.53;57.60;99589.22;3153322;28;20405;-71
2023/08/16 00:22:08;;;;;;;;;;;;;;;23.50;57.54;99589.53;3157900;28;19920;-71
2023/08/16 00:23:39;;;;;;;;;;;;;;;23.47;57.71;99585.34;3152808;28;20387;-72
2023/08/16 00:25:10;;;;;;;;;;;;;;;23.44;57.83;99591.00;3145704;28;19977;-72
2023/08/16 00:26:42;;;;;;;;;;;;;;;23.44;57.82;99590.16;3139241;28;19925;-72
2023/08/16 00:28:12;;;;;;;;;;;;;;;23.43;57.91;99588.50;3145641;28;19927;-72
2023/08/16 00:29:44;;;;;;;;;;;;;;;23.43;57.77;99594.66;3143444;28;19932;-71
2023/08/16 00:31:15;;;;;;;;;;;;;;;23.45;57.60;99591.81;3133205;28;19983;-71
2023/08/16 00:32:46;;;;;;;;;;;;;;;23.44;57.94;99587.50;3145295;28;20002;-71
2023/08/16 00:34:18;;;;;;;;;;;;;;;23.43;58.10;99594.66;3143331;28;19924;-71
2023/08/16 00:35:51;;;;;;;;;;;;;;;23.39;58.49;99587.97;3143953;28;19960;-72
2023/08/16 00:37:21;;;;;;;;;;;;;;;23.33;58.25;99583.28;3141112;28;20398;-71
2023/08/16 00:38:53;;;;;;;;;;;;;;;23.32;58.29;99585.09;3142322;28;19920;-71
2023/08/16 00:40:24;;;;;;;;;;;;;;;23.31;58.36;99578.13;3144896;28;19924;-71
2023/08/16 00:41:55;;;;;;;;;;;;;;;23.32;58.54;99582.44;3141548;28;19924;-71
2023/08/16 00:43:26;;;;;;;;;;;;;;;23.30;58.45;99586.25;3141242;28;19927;-71
2023/08/16 00:44:57;;;;;;;;;;;;;;;23.25;58.69;99586.72;3138901;28;19920;-72
2023/08/16 00:46:30;;;;;;;;;;;;;;;23.24;58.59;99585.03;3145377;28;19920;-72
2023/08/16 00:48:00;;;;;;;;;;;;;;;23.23;58.84;99585.22;3145230;28;20007;-71
2023/08/16 00:49:33;;;;;;;;;;;;;;;23.22;58.53;99579.06;3141389;28;19940;-71
2023/08/16 00:51:05;;;;;;;;;;;;;;;23.26;58.77;99584.91;3144923;28;19931;-71
2023/08/16 00:52:36;;;;;;;;;;;;;;;23.23;58.55;99585.22;3145364;28;20413;-72
2023/08/16 00:54:07;;;;;;;;;;;;;;;23.21;58.87;99595.16;3145456;28;20011;-72
2023/08/16 00:55:39;;;;;;;;;;;;;;;23.20;58.58;99583.69;3145140;28;19921;-72
2023/08/16 00:57:10;;;;;;;;;;;;;;;23.21;58.77;99590.66;3145506;28;19920;-71
2023/08/16 00:58:41;;;;;;;;;;;;;;;23.21;58.75;99585.34;3133154;28;19977;-71
2023/08/16 01:00:13;;;;;;;;;;;;;;;23.21;58.85;99590.66;3144745;28;19936;-71
2023/08/16 01:01:45;;;;;;;;;;;;;;;23.23;58.69;99587.88;3136845;28;20522;-72
2023/08/16 01:03:15;;;;;;;;;;;;;;;23.23;58.58;99594.00;3142277;28;20030;-72
2023/08/16 01:04:48;;;;;;;;;;;;;;;23.22;58.62;99592.34;3142476;28;20006;-72
2023/08/16 01:06:20;;;;;;;;;;;;;;;23.23;58.61;99593.19;3145271;28;19925;-72
2023/08/16 01:07:51;;;;;;;;;;;;;;;23.25;58.80;99596.50;3145311;28;20341;-71
2023/08/16 01:09:23;;;;;;;;;;;;;;;23.22;58.79;99587.03;3145374;28;19921;-72
2023/08/16 01:10:59;;;;;;;;;;;;;;;23.19;58.88;99590.00;3144761;28;19920;-71
2023/08/16 01:12:32;;;;;;;;;;;;;;;23.20;58.76;99588.19;3145048;28;19968;-71
2023/08/16 01:14:06;;;;;;;;;;;;;;;23.21;58.83;99581.88;3145086;28;20377;-72
2023/08/16 01:15:39;;;;;;;;;;;;;;;23.21;58.62;99595.16;3140570;28;19920;-72
2023/08/16 01:17:12;;;;;;;;;;;;;;;23.21;58.84;99588.00;3145148;28;19921;-72
2023/08/16 01:18:44;;;;;;;;;;;;;;;23.23;58.59;99586.03;3140553;28;20590;-72
2023/08/16 01:20:18;;;;;;;;;;;;;;;23.25;58.49;99589.38;3145028;28;19950;-71
2023/08/16 01:21:54;;;;;;;;;;;;;;;23.26;58.50;99588.38;3145184;28;19999;-71
2023/08/16 01:23:37;;;;;;;;;;;;;;;23.27;58.63;99587.38;3135937;28;19928;-71
2023/08/16 01:25:12;;;;;;;;;;;;;;;23.28;58.77;99586.41;3156897;28;19924;-71
2023/08/16 01:26:44;;;;;;;;;;;;;;;23.29;58.58;99588.06;3149176;28;19920;-71
2023/08/16 01:28:16;;;;;;;;;;;;;;;23.31;58.44;99590.59;3147594;28;19924;-71
2023/08/16 01:29:48;;;;;;;;;;;;;;;23.32;58.56;99585.09;3157818;28;19920;-71
2023/08/16 01:31:19;;;;;;;;;;;;;;;23.34;58.26;99588.44;3157398;28;20438;-71
2023/08/16 01:32:50;;;;;;;;;;;;;;;23.35;58.34;99589.28;3153365;28;20329;-71
2023/08/16 01:34:21;;;;;;;;;;;;;;;23.37;58.35;99592.63;3157760;28;19920;-70
2023/08/16 01:35:52;;;;;;;;;;;;;;;23.36;58.34;99591.75;3157923;28;19920;-71
2023/08/16 01:37:24;;;;;;;;;;;;;;;23.36;58.33;99589.09;3152813;28;19927;-71
2023/08/16 01:38:56;;;;;;;;;;;;;;;23.36;58.42;99591.75;3155134;28;20273;-71
2023/08/16 01:40:28;;;;;;;;;;;;;;;23.35;58.62;99592.75;3157511;28;19939;-71
2023/08/16 01:42:02;;;;;;;;;;;;;;;23.35;58.69;99592.75;3154400;28;19924;-71
2023/08/16 01:43:33;;;;;;;;;;;;;;;23.36;58.41;99588.28;3152178;28;19955;-72
2023/08/16 01:45:05;;;;;;;;;;;;;;;23.36;58.89;99586.44;3151622;28;19935;-72
2023/08/16 01:46:37;;;;;;;;;;;;;;;23.35;58.84;99594.59;3157587;28;19924;-71
2023/08/16 01:48:09;;;;;;;;;;;;;;;23.35;58.85;99586.63;3157380;28;19939;-72
2023/08/16 01:49:41;;;;;;;;;;;;;;;23.33;58.96;99586.75;3157579;28;20456;-72
2023/08/16 01:51:13;;;;;;;;;;;;;;;23.35;58.65;99583.97;3156907;28;19927;-71
2023/08/16 01:52:43;;;;;;;;;;;;;;;23.37;58.73;99585.47;3159484;28;20231;-72
2023/08/16 01:54:15;;;;;;;;;;;;;;;23.41;58.52;99587.81;3159902;28;19988;-72
2023/08/16 01:55:46;;;;;;;;;;;;;;;23.43;58.49;99593.81;3159795;28;19931;-71
2023/08/16 01:57:18;;;;;;;;;;;;;;;23.42;58.52;99586.81;3159707;28;19920;-72
2023/08/16 01:58:50;;;;;;;;;;;;;;;23.43;58.49;99591.16;3159921;28;19971;-71
2023/08/16 02:00:21;;;;;;;;;;;;;;;23.43;58.79;99588.50;3159786;28;20014;-71
2023/08/16 02:01:52;;;;;;;;;;;;;;;23.43;58.70;99588.50;3150061;28;19927;-71
2023/08/16 02:03:23;;;;;;;;;;;;;;;23.46;58.45;99593.50;3147348;28;19920;-72
2023/08/16 02:04:54;;;;;;;;;;;;;;;23.48;58.44;99591.50;3157556;28;19923;-71
2023/08/16 02:06:25;;;;;;;;;;;;;;;23.49;58.70;99590.53;3159791;28;19927;-71
2023/08/16 02:07:57;;;;;;;;;;;;;;;23.52;58.67;99595.53;3159812;28;20337;-72
2023/08/16 02:09:27;;;;;;;;;;;;;;;23.53;58.49;99591.88;3159673;28;19920;-71
2023/08/16 02:10:59;;;;;;;;;;;;;;;23.55;58.48;99592.56;3156199;28;20385;-71
2023/08/16 02:12:31;;;;;;;;;;;;;;;23.56;58.24;99595.03;3153490;28;19927;-72
2023/08/16 02:14:02;;;;;;;;;;;;;;;23.55;58.48;99592.56;3159879;28;19966;-72
2023/08/16 02:15:33;;;;;;;;;;;;;;;23.54;58.29;99578.41;3159618;28;20388;-72
2023/08/16 02:17:04;;;;;;;;;;;;;;;23.53;58.80;99579.41;3155530;28;20023;-72
2023/08/16 02:18:35;;;;;;;;;;;;;;;23.52;58.81;99579.59;3155810;28;19920;-72
2023/08/16 02:20:08;;;;;;;;;;;;;;;23.50;58.60;99584.22;3149465;28;19921;-72
2023/08/16 02:21:38;;;;;;;;;;;;;;;23.48;58.83;99583.53;3159480;28;20426;-72
2023/08/16 02:23:10;;;;;;;;;;;;;;;23.49;58.96;99585.22;3149212;28;19967;-71
2023/08/16 02:24:41;;;;;;;;;;;;;;;23.49;58.73;99590.53;3147160;28;20269;-72
2023/08/16 02:26:12;;;;;;;;;;;;;;;23.50;58.88;99590.34;3159398;28;19920;-72
2023/08/16 02:27:44;;;;;;;;;;;;;;;23.50;58.90;99579.72;3158915;28;19920;-71
2023/08/16 02:29:16;;;;;;;;;;;;;;;23.51;58.57;99575.25;3159132;28;19924;-71
2023/08/16 02:30:46;;;;;;;;;;;;;;;23.52;58.61;99582.25;3157736;28;19924;-71
2023/08/16 02:32:18;;;;;;;;;;;;;;;23.51;58.64;99583.22;3146663;28;19932;-72
2023/08/16 02:33:48;;;;;;;;;;;;;;;23.50;58.68;99579.72;3154887;28;19924;-72
2023/08/16 02:35:20;;;;;;;;;;;;;;;23.52;58.88;99584.91;3159565;28;19924;-72
2023/08/16 02:36:50;;;;;;;;;;;;;;;23.54;58.54;99577.59;3159358;28;19920;-71
2023/08/16 02:38:22;;;;;;;;;;;;;;;23.55;58.44;99573.94;3151730;28;19988;-71
2023/08/16 02:39:53;;;;;;;;;;;;;;;23.56;58.71;99580.91;3159507;28;19919;-72
2023/08/16 02:41:24;;;;;;;;;;;;;;;23.59;58.69;99577.94;3155677;28;19930;-71
2023/08/16 02:42:56;;;;;;;;;;;;;;;23.58;58.70;99576.28;3159696;28;19923;-71
2023/08/16 02:44:28;;;;;;;;;;;;;;;23.57;58.45;99570.16;3137301;28;19944;-71
2023/08/16 02:45:58;;;;;;;;;;;;;;;23.58;58.36;99571.81;3153817;28;19970;-71
2023/08/16 02:47:30;;;;;;;;;;;;;;;23.57;58.67;99579.91;3146735;28;20077;-72
2023/08/16 02:49:00;;;;;;;;;;;;;;;23.58;58.70;99581.59;3159086;28;19920;-72
2023/08/16 02:50:32;;;;;;;;;;;;;;;23.56;58.76;99579.09;3159304;28;20305;-72
2023/08/16 02:52:02;;;;;;;;;;;;;;;23.57;58.63;99583.44;3159280;28;19943;-72
2023/08/16 02:53:34;;;;;;;;;;;;;;;23.57;58.60;99586.09;3159359;28;19920;-72
2023/08/16 02:55:06;;;;;;;;;;;;;;;23.59;58.71;99578.78;3159433;28;20320;-72
2023/08/16 02:56:36;;;;;;;;;;;;;;;23.60;58.70;99576.94;3159223;28;19930;-72
2023/08/16 02:58:09;;;;;;;;;;;;;;;23.60;58.24;99584.91;3159119;28;20381;-72
2023/08/16 02:59:40;;;;;;;;;;;;;;;23.59;58.40;99578.78;3159450;28;19927;-72
2023/08/16 03:01:12;;;;;;;;;;;;;;;23.58;58.77;99576.28;3151184;28;19924;-72
2023/08/16 03:02:42;;;;;;;;;;;;;;;23.58;58.46;99577.13;3152446;28;20446;-72
2023/08/16 03:04:14;;;;;;;;;;;;;;;23.57;58.76;99579.91;3158152;28;20002;-72
2023/08/16 03:05:44;;;;;;;;;;;;;;;23.57;58.80;99579.91;3159157;28;19931;-72
2023/08/16 03:07:16;;;;;;;;;;;;;;;23.56;58.63;99583.59;3156444;28;19943;-72
2023/08/16 03:08:46;;;;;;;;;;;;;;;23.54;59.00;99577.59;3148932;28;20367;-72
2023/08/16 03:10:18;;;;;;;;;;;;;;;23.52;58.76;99577.75;3157664;28;20015;-72
2023/08/16 03:11:49;;;;;;;;;;;;;;;23.50;58.92;99581.56;3159034;28;19924;-72
2023/08/16 03:13:22;;;;;;;;;;;;;;;23.49;59.18;99577.25;3159197;28;20018;-72
2023/08/16 03:14:53;;;;;;;;;;;;;;;23.48;59.22;99578.22;3155193;28;20317;-72
2023/08/16 03:16:24;;;;;;;;;;;;;;;23.45;59.24;99576.69;3146701;28;19920;-72
2023/08/16 03:17:55;;;;;;;;;;;;;;;23.44;59.35;99575.03;3156947;28;19927;-72
2023/08/16 03:19:27;;;;;;;;;;;;;;;23.43;59.14;99573.38;3158392;28;19926;-72
2023/08/16 03:20:58;;;;;;;;;;;;;;;23.42;59.07;99574.34;3158770;28;19928;-72
2023/08/16 03:22:29;;;;;;;;;;;;;;;23.39;59.52;99578.16;3158801;28;20477;-72
2023/08/16 03:24:01;;;;;;;;;;;;;;;23.37;59.74;99572.19;3158300;28;19924;-72
2023/08/16 03:25:31;;;;;;;;;;;;;;;23.35;59.50;99571.50;3158855;28;20370;-73
2023/08/16 03:27:03;;;;;;;;;;;;;;;23.33;59.61;99573.47;3158745;28;19920;-73
2023/08/16 03:28:35;;;;;;;;;;;;;;;23.32;59.61;99574.47;3159175;28;19920;-72
2023/08/16 03:30:07;;;;;;;;;;;;;;;23.30;60.00;99573.78;3154343;28;19963;-72
2023/08/16 03:31:37;;;;;;;;;;;;;;;23.29;60.03;99577.44;3159111;28;19921;-72
2023/08/16 03:33:09;;;;;;;;;;;;;;;23.28;59.88;99564.31;3158985;28;19920;-72
2023/08/16 03:34:40;;;;;;;;;;;;;;;23.25;60.07;99565.47;3158723;28;20000;-72
2023/08/16 03:36:12;;;;;;;;;;;;;;;23.23;60.36;99563.97;3158985;28;19924;-72
2023/08/16 03:37:43;;;;;;;;;;;;;;;23.22;60.33;99564.94;3151395;28;19924;-72
2023/08/16 03:39:14;;;;;;;;;;;;;;;23.22;60.31;99564.94;3158022;28;20007;-72
2023/08/16 03:40:45;;;;;;;;;;;;;;;23.23;60.35;99564.78;3156945;28;20500;-72
2023/08/16 03:42:16;;;;;;;;;;;;;;;23.22;60.23;99563.13;3156567;28;19920;-72
2023/08/16 03:43:48;;;;;;;;;;;;;;;23.23;60.66;99562.13;3151886;28;19920;-72
2023/08/16 03:45:24;;;;;;;;;;;;;;;23.25;60.34;99567.28;3158899;28;20023;-72
2023/08/16 03:46:56;;;;;;;;;;;;;;;23.27;60.21;99571.44;3158624;28;20006;-72
2023/08/16 03:48:28;;;;;;;;;;;;;;;23.29;60.23;99566.81;3158454;28;20305;-72
2023/08/16 03:49:59;;;;;;;;;;;;;;;23.33;60.22;99575.31;3158796;28;20027;-72
2023/08/16 03:51:31;;;;;;;;;;;;;;;23.34;59.89;99572.50;3158212;28;20305;-72
2023/08/16 03:53:01;;;;;;;;;;;;;;;23.35;59.89;99576.81;3158447;28;20385;-72
2023/08/16 03:54:33;;;;;;;;;;;;;;;23.37;60.01;99574.84;3158595;28;19972;-72
2023/08/16 03:56:05;;;;;;;;;;;;;;;23.39;59.94;99572.84;3158020;28;20411;-71
2023/08/16 03:57:35;;;;;;;;;;;;;;;23.41;59.84;99574.53;3158357;28;20266;-72
2023/08/16 03:59:08;;;;;;;;;;;;;;;23.43;59.98;99575.22;3153648;28;19927;-72
2023/08/16 04:00:40;;;;;;;;;;;;;;;23.45;59.68;99581.19;3158544;28;19924;-72
2023/08/16 04:02:11;;;;;;;;;;;;;;;23.46;59.70;99582.88;3146847;28;20361;-72
2023/08/16 04:03:44;;;;;;;;;;;;;;;23.47;59.93;99585.34;3154414;28;20314;-72
2023/08/16 04:05:15;;;;;;;;;;;;;;;23.49;59.86;99587.88;3133575;28;19994;-72
2023/08/16 04:06:47;;;;;;;;;;;;;;;23.50;59.78;99587.69;3157249;28;19920;-72
2023/08/16 04:08:17;;;;;;;;;;;;;;;23.50;59.71;99585.03;3158574;28;19924;-72
2023/08/16 04:09:49;;;;;;;;;;;;;;;23.50;59.62;99584.22;3158507;28;19946;-72
2023/08/16 04:11:19;;;;;;;;;;;;;;;23.50;59.60;99577.06;3151011;28;19924;-72
2023/08/16 04:12:51;;;;;;;;;;;;;;;23.52;59.63;99585.72;3153737;28;20058;-72
2023/08/16 04:14:23;;;;;;;;;;;;;;;23.54;59.58;99582.91;3153170;28;19927;-72
2023/08/16 04:15:55;;;;;;;;;;;;;;;23.55;59.54;99581.94;3151929;28;19964;-72
2023/08/16 04:17:25;;;;;;;;;;;;;;;23.56;59.59;99586.25;3158208;28;19924;-72
2023/08/16 04:18:57;;;;;;;;;;;;;;;23.57;59.62;99590.56;3158097;28;20003;-71
2023/08/16 04:20:27;;;;;;;;;;;;;;;23.56;59.62;99586.25;3158188;28;19927;-72
2023/08/16 04:21:59;;;;;;;;;;;;;;;23.56;59.87;99588.91;3158496;28;19983;-71
2023/08/16 04:23:29;;;;;;;;;;;;;;;23.54;59.85;99581.06;3158039;28;19924;-72
2023/08/16 04:25:01;;;;;;;;;;;;;;;23.52;60.13;99593.69;3158362;28;19926;-72
2023/08/16 04:26:31;;;;;;;;;;;;;;;23.52;59.84;99588.38;3157945;28;19920;-71
2023/08/16 04:28:03;;;;;;;;;;;;;;;23.54;60.13;99585.56;3154006;28;19920;-72
2023/08/16 04:29:35;;;;;;;;;;;;;;;23.56;59.76;99586.25;3157862;28;19924;-72
2023/08/16 04:31:06;;;;;;;;;;;;;;;23.56;59.98;99584.41;3158276;28;19926;-72
2023/08/16 04:32:38;;;;;;;;;;;;;;;23.59;59.87;99592.06;3157999;28;19923;-71
2023/08/16 04:34:09;;;;;;;;;;;;;;;23.60;59.92;99590.22;3158196;28;19997;-71
2023/08/16 04:35:40;;;;;;;;;;;;;;;23.62;59.94;99582.94;3157895;28;19985;-72
2023/08/16 04:37:11;;;;;;;;;;;;;;;23.62;59.61;99593.56;3154986;28;19924;-72
2023/08/16 04:38:42;;;;;;;;;;;;;;;23.62;59.93;99594.41;3152977;28;19920;-72
2023/08/16 04:40:13;;;;;;;;;;;;;;;23.63;59.94;99589.91;3157978;28;19927;-72
2023/08/16 04:41:44;;;;;;;;;;;;;;;23.64;59.63;99591.59;3153988;28;19924;-72
2023/08/16 04:43:15;;;;;;;;;;;;;;;23.64;60.05;99591.59;3150863;28;19929;-72
2023/08/16 04:44:48;;;;;;;;;;;;;;;23.63;60.02;99597.88;3149319;28;19972;-72
2023/08/16 04:46:19;;;;;;;;;;;;;;;23.62;59.80;99599.72;3157216;28;19924;-72
2023/08/16 04:47:50;;;;;;;;;;;;;;;23.64;59.83;99602.25;3158117;28;20304;-72
2023/08/16 04:49:22;;;;;;;;;;;;;;;23.66;60.16;99604.72;3157577;28;19927;-72
2023/08/16 04:50:53;;;;;;;;;;;;;;;23.69;59.99;99601.75;3157713;28;19919;-71
2023/08/16 04:52:24;;;;;;;;;;;;;;;23.71;59.63;99594.50;3157799;28;20007;-71
2023/08/16 04:53:55;;;;;;;;;;;;;;;23.72;60.10;99594.34;3158129;28;20024;-72
2023/08/16 04:55:26;;;;;;;;;;;;;;;23.72;59.77;99594.34;3157690;28;19927;-71
2023/08/16 04:56:58;;;;;;;;;;;;;;;23.70;60.22;99601.63;3155632;28;19920;-71
2023/08/16 04:58:28;;;;;;;;;;;;;;;23.72;60.14;99596.13;3155659;28;19920;-70
2023/08/16 05:00:06;;;;;;;;;;;;;;;23.73;59.98;99601.31;3153531;28;19924;-71
2023/08/16 05:01:38;;;;;;;;;;;;;;;23.74;60.17;99602.97;3147026;28;19934;-71
2023/08/16 05:03:08;;;;;;;;;;;;;;;23.75;60.18;99599.34;3153979;28;19939;-71
2023/08/16 05:04:40;;;;;;;;;;;;;;;23.73;60.45;99606.63;3157914;28;19931;-71
2023/08/16 05:06:11;;;;;;;;;;;;;;;23.73;60.17;99597.84;3157871;28;19924;-71
2023/08/16 05:07:42;;;;;;;;;;;;;;;23.73;60.17;99603.97;3157480;28;19920;-71
2023/08/16 05:09:13;;;;;;;;;;;;;;;23.75;60.39;99609.97;3157689;28;19920;-72
2023/08/16 05:10:44;;;;;;;;;;;;;;;23.74;60.64;99608.28;3155470;28;19942;-71
2023/08/16 05:12:16;;;;;;;;;;;;;;;23.74;60.59;99599.50;3147823;28;20304;-71
2023/08/16 05:13:47;;;;;;;;;;;;;;;23.74;60.56;99605.63;3157603;28;19920;-71
2023/08/16 05:15:20;;;;;;;;;;;;;;;23.77;60.41;99607.16;3157563;28;19924;-71
2023/08/16 05:16:51;;;;;;;;;;;;;;;23.77;60.21;99605.31;3157955;28;20433;-71
2023/08/16 05:18:22;;;;;;;;;;;;;;;23.78;60.58;99608.81;3157818;28;19920;-71
2023/08/16 05:19:53;;;;;;;;;;;;;;;23.79;60.23;99610.50;3157697;28;19927;-71
2023/08/16 05:21:24;;;;;;;;;;;;;;;23.80;60.23;99612.16;3157777;28;20460;-71
2023/08/16 05:22:56;;;;;;;;;;;;;;;23.83;60.16;99609.16;3157707;28;19924;-71
2023/08/16 05:24:26;;;;;;;;;;;;;;;23.86;60.30;99618.66;3157378;28;19920;-71
2023/08/16 05:25:58;;;;;;;;;;;;;;;23.88;60.04;99614.03;3157339;28;19930;-71
2023/08/16 05:27:29;;;;;;;;;;;;;;;23.90;60.22;99612.00;3155174;28;19920;-71
2023/08/16 05:29:00;;;;;;;;;;;;;;;23.92;60.35;99615.34;3160128;28;19928;-71
2023/08/16 05:30:33;;;;;;;;;;;;;;;23.93;60.16;99617.00;3160277;28;20316;-71
2023/08/16 05:32:04;;;;;;;;;;;;;;;23.95;59.92;99604.41;3159419;28;19924;-71
2023/08/16 05:33:36;;;;;;;;;;;;;;;23.95;60.17;99612.38;3160374;28;19920;-71
2023/08/16 05:35:07;;;;;;;;;;;;;;;23.97;60.24;99610.41;3160242;28;20336;-71
2023/08/16 05:36:46;;;;;;;;;;;;;;;23.98;59.95;99612.88;3159874;28;19931;-71
2023/08/16 05:38:21;;;;;;;;;;;;;;;23.99;59.96;99616.41;3151346;28;19927;-71
2023/08/16 05:39:52;;;;;;;;;;;;;;;24.00;60.10;99610.91;3160288;28;19932;-71
2023/08/16 05:41:24;;;;;;;;;;;;;;;24.00;59.97;99607.41;3155203;28;19943;-71
2023/08/16 05:42:54;;;;;;;;;;;;;;;24.01;60.21;99604.59;3160065;28;20006;-71
2023/08/16 05:44:26;;;;;;;;;;;;;;;24.02;60.29;99605.44;3148451;28;19920;-71
2023/08/16 05:45:58;;;;;;;;;;;;;;;24.03;60.12;99607.09;3160291;28;20357;-71
2023/08/16 05:47:29;;;;;;;;;;;;;;;24.04;60.17;99604.25;3160060;28;20011;-71
2023/08/16 05:49:00;;;;;;;;;;;;;;;24.04;59.93;99609.56;3135056;28;19927;-71
2023/08/16 05:50:34;;;;;;;;;;;;;;;24.07;59.80;99611.09;3158489;28;19920;-71
2023/08/16 05:52:05;;;;;;;;;;;;;;;24.06;60.05;99607.59;3159965;28;19923;-73
2023/08/16 05:53:36;;;;;;;;;;;;;;;24.06;60.27;99609.44;3159667;28;20025;-73
2023/08/16 05:55:08;;;;;;;;;;;;;;;24.07;60.35;99608.44;3159241;28;20014;-71
2023/08/16 05:56:38;;;;;;;;;;;;;;;24.10;60.24;99613.44;3147981;28;19982;-72
2023/08/16 05:58:10;;;;;;;;;;;;;;;24.10;60.24;99613.44;3155189;28;20370;-71
2023/08/16 05:59:41;;;;;;;;;;;;;;;24.11;60.04;99615.13;3159791;28;20302;-71
2023/08/16 06:01:13;;;;;;;;;;;;;;;24.13;60.19;99607.78;3155726;28;19974;-71
2023/08/16 06:02:44;;;;;;;;;;;;;;;24.15;59.87;99611.13;3153320;28;19935;-71
2023/08/16 06:04:16;;;;;;;;;;;;;;;24.17;59.83;99611.81;3156131;28;19920;-71
2023/08/16 06:05:47;;;;;;;;;;;;;;;24.20;60.12;99614.16;3159930;28;20336;-71
2023/08/16 06:07:19;;;;;;;;;;;;;;;24.23;60.13;99615.66;3156925;28;19928;-71
2023/08/16 06:08:49;;;;;;;;;;;;;;;24.24;59.94;99618.13;3149710;28;19924;-71
2023/08/16 06:10:21;;;;;;;;;;;;;;;24.27;59.67;99614.31;3155753;28;19921;-71
2023/08/16 06:11:52;;;;;;;;;;;;;;;24.31;60.00;99620.97;3159998;28;19931;-71
2023/08/16 06:13:23;;;;;;;;;;;;;;;24.34;59.83;99623.31;3159841;28;19920;-71
2023/08/16 06:14:54;;;;;;;;;;;;;;;24.38;59.75;99615.84;3160076;28;19939;-71
2023/08/16 06:16:26;;;;;;;;;;;;;;;24.41;59.47;99620.84;3159547;28;19920;-71
2023/08/16 06:17:58;;;;;;;;;;;;;;;24.44;59.47;99625.88;3159744;28;19930;-71
2023/08/16 06:19:28;;;;;;;;;;;;;;;24.47;59.33;99618.41;3159778;28;19926;-71
2023/08/16 06:21:00;;;;;;;;;;;;;;;24.51;59.41;99617.06;3159741;28;19981;-71
2023/08/16 06:22:33;;;;;;;;;;;;;;;24.52;59.25;99618.75;3159590;28;19927;-71
2023/08/16 06:24:05;;;;;;;;;;;;;;;24.54;59.52;99623.91;3159393;28;20028;-71
2023/08/16 06:25:35;;;;;;;;;;;;;;;24.57;59.48;99620.06;3155362;28;20522;-71
2023/08/16 06:27:08;;;;;;;;;;;;;;;24.62;59.44;99623.91;3159241;28;19965;-71
2023/08/16 06:28:39;;;;;;;;;;;;;;;24.68;59.07;99617.09;3159399;28;19927;-71
2023/08/16 06:30:11;;;;;;;;;;;;;;;24.70;59.16;99621.28;3159687;28;19931;-71
2023/08/16 06:31:43;;;;;;;;;;;;;;;24.74;59.36;99617.28;3159468;28;20380;-71
2023/08/16 06:33:14;;;;;;;;;;;;;;;24.72;59.42;99613.94;3159413;28;20289;-71
2023/08/16 06:34:45;;;;;;;;;;;;;;;24.73;59.04;99615.63;3159203;28;20014;-71
2023/08/16 06:36:16;;;;;;;;;;;;;;;24.77;59.35;99607.28;3159426;28;20313;-71
2023/08/16 06:37:47;;;;;;;;;;;;;;;24.80;59.05;99613.13;3152583;28;19935;-71
2023/08/16 06:39:18;;;;;;;;;;;;;;;24.86;59.17;99609.78;3153898;28;20298;-71
2023/08/16 06:40:50;;;;;;;;;;;;;;;24.92;58.72;99608.28;3157140;28;19928;-71
2023/08/16 06:42:21;;;;;;;;;;;;;;;24.98;58.60;99608.44;3159301;28;20328;-71
2023/08/16 06:43:52;;;;;;;;;;;;;;;25.06;58.60;99604.97;3151158;28;19921;-70
2023/08/16 06:45:23;;;;;;;;;;;;;;;25.12;58.39;99609.63;3155887;28;20317;-71
2023/08/16 06:46:57;;;;;;;;;;;;;;;25.15;58.42;99604.00;3159483;28;20077;-71
2023/08/16 06:48:29;;;;;;;;;;;;;;;25.17;58.42;99599.34;3158978;28;19927;-71
2023/08/16 06:49:59;;;;;;;;;;;;;;;25.21;58.37;99607.00;3159524;28;19981;-71
2023/08/16 06:51:31;;;;;;;;;;;;;;;25.25;58.33;99609.13;3159193;28;20014;-71
2023/08/16 06:53:01;;;;;;;;;;;;;;;25.33;58.19;99601.13;3156150;28;19927;-71
2023/08/16 06:54:33;;;;;;;;;;;;;;;25.42;58.04;99600.13;3153650;28;19992;-71
2023/08/16 06:56:05;;;;;;;;;;;;;;;25.49;58.27;99597.59;3159292;28;19930;-71
2023/08/16 06:57:36;;;;;;;;;;;;;;;25.57;58.13;99597.56;3158921;28;20321;-71
2023/08/16 06:59:07;;;;;;;;;;;;;;;25.63;57.80;99596.88;3159210;28;19920;-71
2023/08/16 07:00:41;;;;;;;;;;;;;;;25.72;57.42;99602.22;3150946;28;20291;-71
2023/08/16 07:02:14;;;;;;;;;;;;;;;25.80;57.68;99602.19;3147773;28;20338;-71
2023/08/16 07:03:46;;;;;;;;;;;;;;;25.87;57.10;99603.19;3155031;28;19935;-71
2023/08/16 07:05:18;;;;;;;;;;;;;;;25.94;57.38;99604.16;3159591;28;19927;-71
2023/08/16 07:06:50;;;;;;;;;;;;;;;25.97;56.81;99609.16;3134308;28;19920;-71
2023/08/16 07:08:20;;;;;;;;;;;;;;;26.05;56.83;99602.94;3155218;28;20015;-71
2023/08/16 07:09:52;;;;;;;;;;;;;;;26.15;56.66;99605.38;3157392;28;19920;-70
2023/08/16 07:11:24;;;;;;;;;;;;;;;26.23;56.49;99603.50;3157605;28;19927;-71
2023/08/16 07:12:56;;;;;;;;;;;;;;;26.30;56.34;99599.13;3158937;28;19920;-72
2023/08/16 07:14:26;;;;;;;;;;;;;;;26.35;56.49;99600.44;3158829;28;20344;-71
2023/08/16 07:15:58;;;;;;;;;;;;;;;26.38;56.41;99600.09;3158912;28;19920;-71
2023/08/16 07:17:30;;;;;;;;;;;;;;;26.44;56.21;99599.38;3158910;28;19920;-71
2023/08/16 07:19:04;;;;;;;;;;;;;;;26.49;56.17;99597.03;3158632;28;20304;-71
2023/08/16 07:20:34;;;;;;;;;;;;;;;26.57;55.61;99598.84;3158983;28;19977;-71
2023/08/16 07:22:06;;;;;;;;;;;;;;;26.63;55.62;99603.47;3158924;28;20010;-71
2023/08/16 07:23:36;;;;;;;;;;;;;;;26.67;55.32;99600.25;3153817;28;19931;-71
2023/08/16 07:25:09;;;;;;;;;;;;;;;26.73;55.42;99601.38;3159087;28;19920;-71
2023/08/16 07:26:39;;;;;;;;;;;;;;;26.80;55.44;99605.03;3158890;28;20423;-71
2023/08/16 07:28:11;;;;;;;;;;;;;;;26.86;55.06;99598.09;3158932;28;19942;-71
2023/08/16 07:29:41;;;;;;;;;;;;;;;26.90;55.07;99600.25;3158359;28;19920;-71
2023/08/16 07:31:13;;;;;;;;;;;;;;;26.99;55.09;99604.50;3159021;28;19920;-71
2023/08/16 07:32:45;;;;;;;;;;;;;;;27.08;54.66;99593.75;3158364;28;19927;-71
2023/08/16 07:34:16;;;;;;;;;;;;;;;27.16;54.59;99594.56;3158821;28;19920;-71
2023/08/16 07:35:47;;;;;;;;;;;;;;;27.25;54.40;99599.81;3158642;28;19920;-71
2023/08/16 07:37:19;;;;;;;;;;;;;;;27.32;54.18;99595.41;3154592;28;19920;-71
2023/08/16 07:38:49;;;;;;;;;;;;;;;27.32;53.90;99595.41;3154818;28;19927;-71
2023/08/16 07:40:21;;;;;;;;;;;;;;;27.35;53.81;99597.69;3158007;28;19920;-71
2023/08/16 07:41:52;;;;;;;;;;;;;;;27.41;53.88;99597.78;3154914;28;19973;-71
2023/08/16 07:43:23;;;;;;;;;;;;;;;27.49;53.87;99594.22;3151179;28;19925;-71
2023/08/16 07:44:54;;;;;;;;;;;;;;;27.57;53.75;99590.63;3144589;28;19920;-72
2023/08/16 07:46:25;;;;;;;;;;;;;;;27.64;53.56;99594.22;3158908;28;19984;-71
2023/08/16 07:47:57;;;;;;;;;;;;;;;27.68;53.25;99592.81;3158740;28;19962;-71
2023/08/16 07:49:29;;;;;;;;;;;;;;;27.74;53.19;99596.59;3150536;28;19950;-72
2023/08/16 07:50:59;;;;;;;;;;;;;;;27.80;53.30;99595.91;3157981;28;19951;-72
2023/08/16 07:52:31;;;;;;;;;;;;;;;27.84;53.03;99598.03;3154027;28;19920;-71
2023/08/16 07:54:02;;;;;;;;;;;;;;;27.87;53.17;99594.97;3158464;28;19925;-71
2023/08/16 07:55:34;;;;;;;;;;;;;;;27.93;53.06;99600.59;3158827;28;19943;-71
2023/08/16 07:57:04;;;;;;;;;;;;;;;27.97;52.80;99593.84;3147020;28;19931;-72